Time;durP1;ratioP1;P1;durP2;ratioP2;P2;SDS_P1;SDS_P2;PMS_P1;PMS_P2;Temp;Humidity;BMP_temperature;BMP_pressure;BME280_temperature;BME280_humidity;BME280_pressure;Samples;Min_cycle;Max_cycle;Signal;HPM_P1;HPM_P2
2023/04/04 00:01:59;;;;;;;0.82;0.73;;;16.70;51.40;;;;;;5011526;28;20086;-75
2023/04/04 00:04:25;;;;;;;1.27;0.80;;;16.70;51.40;;;;;;5011790;28;20045;-75
2023/04/04 00:06:51;;;;;;;2.70;0.75;;;16.70;51.40;;;;;;5011629;28;20123;-74
2023/04/04 00:09:17;;;;;;;1.10;0.60;;;16.70;51.50;;;;;;5011793;28;20029;-75
2023/04/04 00:11:42;;;;;;;0.63;0.50;;;16.70;52.10;;;;;;5011456;28;20290;-75
2023/04/04 00:14:08;;;;;;;1.23;0.73;;;16.70;51.50;;;;;;5011671;28;20097;-75
2023/04/04 00:16:34;;;;;;;1.98;0.60;;;16.70;51.40;;;;;;5011598;28;20489;-75
2023/04/04 00:18:59;;;;;;;0.70;0.60;;;16.70;51.40;;;;;;5011726;28;20026;-75
2023/04/04 00:21:26;;;;;;;0.82;0.68;;;16.70;51.50;;;;;;5014124;28;20030;-75
2023/04/04 00:23:53;;;;;;;1.20;0.65;;;16.70;51.50;;;;;;5015315;28;20025;-75
2023/04/04 00:26:20;;;;;;;0.88;0.60;;;16.70;52.10;;;;;;5015305;28;20474;-75
2023/04/04 00:28:46;;;;;;;1.25;0.73;;;16.70;51.50;;;;;;5015205;28;20377;-75
2023/04/04 00:31:11;;;;;;;1.83;0.70;;;16.70;51.50;;;;;;5015262;28;20057;-75
2023/04/04 00:33:37;;;;;;;0.43;0.40;;;16.70;52.10;;;;;;5015341;28;20030;-75
2023/04/04 00:36:03;;;;;;;1.02;0.63;;;16.70;51.50;;;;;;5015541;28;20033;-74
2023/04/04 00:38:29;;;;;;;1.25;0.70;;;16.70;51.50;;;;;;5015137;28;20026;-75
2023/04/04 00:40:56;;;;;;;1.30;0.60;;;16.70;51.50;;;;;;5015020;28;20036;-75
2023/04/04 00:43:22;;;;;;;0.45;0.45;;;16.60;51.40;;;;;;5015089;28;20018;-75
2023/04/04 00:45:51;;;;;;;1.05;0.50;;;16.70;51.50;;;;;;5015151;28;20388;-75
2023/04/04 00:48:17;;;;;;;1.25;0.60;;;16.60;51.40;;;;;;5015032;28;20032;-75
2023/04/04 00:50:43;;;;;;;0.63;0.40;;;16.70;51.50;;;;;;5014723;28;20030;-75
2023/04/04 00:53:09;;;;;;;0.95;0.60;;;16.70;51.50;;;;;;5015240;28;20105;-75
2023/04/04 00:55:38;;;;;;;0.88;0.70;;;16.60;51.50;;;;;;5014753;28;20041;-75
2023/04/04 00:58:05;;;;;;;1.52;0.90;;;16.60;51.40;;;;;;5015032;28;20049;-75
2023/04/04 01:00:35;;;;;;;1.33;0.60;;;16.70;51.50;;;;;;5015003;28;20022;-75
2023/04/04 01:03:04;;;;;;;1.83;0.65;;;16.60;51.40;;;;;;5014308;28;20042;-75
2023/04/04 01:05:31;;;;;;;1.90;0.73;;;16.60;51.40;;;;;;5014838;28;20042;-75
2023/04/04 01:07:57;;;;;;;1.02;0.60;;;16.60;51.40;;;;;;5014469;28;20018;-75
2023/04/04 01:10:23;;;;;;;1.55;0.43;;;16.60;51.40;;;;;;5014872;28;20026;-75
2023/04/04 01:12:49;;;;;;;0.50;0.50;;;16.60;51.40;;;;;;5014459;28;20045;-75
2023/04/04 01:15:15;;;;;;;0.75;0.50;;;16.60;51.40;;;;;;5014732;28;20029;-75
2023/04/04 01:17:43;;;;;;;0.95;0.70;;;16.60;52.10;;;;;;5014615;28;20026;-75
2023/04/04 01:20:19;;;;;;;1.13;0.70;;;17.20;51.70;;;;;;5014554;28;20053;-75
2023/04/04 01:22:48;;;;;;;0.95;0.40;;;16.60;51.40;;;;;;5014582;28;20108;-75
2023/04/04 01:25:15;;;;;;;1.40;0.52;;;16.60;51.40;;;;;;5014454;28;20038;-75
2023/04/04 01:27:41;;;;;;;1.48;0.75;;;16.60;51.40;;;;;;5014504;28;20022;-75
2023/04/04 01:30:08;;;;;;;0.85;0.60;;;16.60;51.40;;;;;;5014412;28;20017;-75
2023/04/04 01:32:49;;;;;;;1.38;0.57;;;16.60;51.40;;;;;;5014228;28;20405;-75
2023/04/04 01:35:54;;;;;;;0.98;0.43;;;16.60;51.40;;;;;;4997912;28;20030;-75
2023/04/04 01:38:26;;;;;;;0.60;0.60;;;16.60;51.40;;;;;;5009563;28;20467;-75
2023/04/04 01:40:59;;;;;;;1.10;0.50;;;16.60;51.40;;;;;;5014232;28;20072;-75
2023/04/04 01:43:25;;;;;;;0.90;0.50;;;16.60;51.40;;;;;;5014232;28;20021;-75
2023/04/04 01:45:51;;;;;;;0.68;0.60;;;16.50;51.40;;;;;;5014102;28;20048;-77
2023/04/04 01:48:16;;;;;;;0.88;0.50;;;16.50;51.40;;;;;;5013862;28;20029;-74
2023/04/04 01:50:42;;;;;;;0.82;0.40;;;16.50;51.40;;;;;;5013780;28;20100;-74
2023/04/04 01:53:07;;;;;;;0.60;0.57;;;16.50;51.40;;;;;;5013918;28;20022;-75
2023/04/04 01:55:33;;;;;;;1.23;0.63;;;16.50;51.40;;;;;;5013801;28;20084;-74
2023/04/04 01:57:59;;;;;;;0.75;0.52;;;16.50;51.40;;;;;;5013875;28;20053;-76
2023/04/04 02:00:25;;;;;;;1.33;0.60;;;16.50;52.10;;;;;;4996206;28;20024;-74
2023/04/04 02:02:51;;;;;;;0.55;0.32;;;16.50;51.40;;;;;;5013356;28;20707;-75
2023/04/04 02:05:17;;;;;;;0.43;0.40;;;16.50;51.40;;;;;;5013793;28;20222;-74
2023/04/04 02:07:47;;;;;;;0.70;0.45;;;16.50;51.40;;;;;;5013783;28;20018;-74
2023/04/04 02:10:13;;;;;;;0.88;0.40;;;16.50;51.40;;;;;;5013678;28;20359;-77
2023/04/04 02:12:39;;;;;;;0.68;0.43;;;16.50;51.40;;;;;;5013705;28;20103;-74
2023/04/04 02:15:06;;;;;;;0.40;0.40;;;16.40;51.40;;;;;;5013259;28;20421;-74
2023/04/04 02:17:34;;;;;;;1.10;0.65;;;16.40;51.30;;;;;;5013566;28;20025;-74
2023/04/04 02:20:00;;;;;;;1.30;0.45;;;16.40;51.40;;;;;;5013161;28;20033;-77
2023/04/04 02:22:26;;;;;;;1.40;0.52;;;16.40;51.30;;;;;;5013287;28;20022;-77
2023/04/04 02:24:52;;;;;;;1.73;0.45;;;16.40;51.40;;;;;;5013484;28;20128;-76
2023/04/04 02:27:18;;;;;;;1.33;0.55;;;16.40;51.30;;;;;;5013129;28;20034;-74
2023/04/04 02:29:44;;;;;;;1.40;0.60;;;16.40;51.30;;;;;;5013197;28;20029;-75
2023/04/04 02:32:09;;;;;;;0.50;0.50;;;16.40;51.30;;;;;;5012986;28;20481;-74
2023/04/04 02:34:35;;;;;;;0.80;0.75;;;16.40;51.30;;;;;;5012988;28;20105;-76
2023/04/04 02:37:01;;;;;;;3.13;0.60;;;16.40;51.30;;;;;;5012989;28;20041;-75
2023/04/04 02:39:26;;;;;;;0.88;0.50;;;16.30;51.30;;;;;;5012864;28;20021;-74
2023/04/04 02:41:52;;;;;;;1.80;0.60;;;16.40;51.30;;;;;;5013005;28;20037;-74
2023/04/04 02:44:18;;;;;;;0.60;0.60;;;16.40;51.30;;;;;;5012272;28;20436;-77
2023/04/04 02:46:43;;;;;;;0.65;0.40;;;16.30;51.30;;;;;;5012808;28;20038;-77
2023/04/04 02:49:09;;;;;;;0.70;0.40;;;16.30;51.30;;;;;;5012667;28;20254;-75
2023/04/04 02:51:35;;;;;;;0.47;0.40;;;16.30;51.30;;;;;;5012816;28;20371;-75
2023/04/04 02:54:02;;;;;;;0.55;0.47;;;16.30;51.30;;;;;;4995070;28;20033;-75
2023/04/04 02:56:27;;;;;;;1.33;0.60;;;16.30;51.30;;;;;;5012659;28;20104;-75
2023/04/04 02:58:53;;;;;;;0.60;0.43;;;16.30;51.30;;;;;;5012675;28;20026;-75
2023/04/04 03:01:18;;;;;;;0.70;0.45;;;16.30;59.80;;;;;;5012790;28;20025;-75
2023/04/04 03:03:45;;;;;;;1.17;0.50;;;16.30;51.30;;;;;;5012492;28;20508;-75
2023/04/04 03:06:13;;;;;;;1.35;0.50;;;16.30;51.30;;;;;;4994954;28;20034;-75
2023/04/04 03:08:39;;;;;;;0.85;0.68;;;16.30;51.30;;;;;;5012526;28;20350;-75
2023/04/04 03:11:05;;;;;;;1.27;0.60;;;16.30;51.30;;;;;;5012603;28;20372;-75
2023/04/04 03:13:31;;;;;;;1.13;0.52;;;16.20;51.30;;;;;;5012396;28;20057;-75
2023/04/04 03:16:07;;;;;;;0.82;0.47;;;16.20;51.30;;;;;;5012413;28;20034;-75
2023/04/04 03:18:33;;;;;;;1.05;0.85;;;16.20;51.30;;;;;;5012691;28;20072;-76
2023/04/04 03:20:59;;;;;;;1.20;0.60;;;16.20;51.90;;;;;;5012453;28;20018;-75
2023/04/04 03:23:24;;;;;;;1.25;0.77;;;16.20;51.30;;;;;;5012590;28;20030;-75
2023/04/04 03:25:50;;;;;;;0.68;0.47;;;16.20;51.20;;;;;;5012250;28;20042;-75
2023/04/04 03:28:16;;;;;;;1.40;0.57;;;16.20;51.30;;;;;;5012557;28;20101;-75
2023/04/04 03:30:41;;;;;;;1.00;0.80;;;16.20;51.30;;;;;;5012279;28;20030;-75
2023/04/04 03:33:08;;;;;;;0.75;0.45;;;16.20;51.30;;;;;;5012570;28;20032;-75
2023/04/04 03:35:40;;;;;;;0.73;0.70;;;16.10;51.80;;;;;;5012510;28;20105;-75
2023/04/04 03:38:08;;;;;;;0.70;0.70;;;16.20;51.20;;;;;;5012599;28;20365;-76
2023/04/04 03:40:34;;;;;;;2.10;0.60;;;16.10;51.20;;;;;;5012410;28;20026;-75
2023/04/04 03:43:01;;;;;;;0.90;0.70;;;16.10;51.20;;;;;;5012437;28;20477;-75
2023/04/04 03:45:31;;;;;;;1.05;0.50;;;16.10;51.20;;;;;;5012227;28;20021;-75
2023/04/04 03:48:13;;;;;;;1.45;0.80;;;16.10;51.20;;;;;;5010516;28;20034;-75
2023/04/04 03:50:39;;;;;;;1.50;0.80;;;16.10;51.20;;;;;;5011778;28;20105;-75
2023/04/04 03:53:06;;;;;;;1.00;0.60;;;16.10;51.20;;;;;;4994938;28;20097;-75
2023/04/04 03:55:33;;;;;;;2.38;0.82;;;16.10;51.20;;;;;;5014985;28;20034;-75
2023/04/04 03:57:59;;;;;;;1.83;0.88;;;16.10;51.20;;;;;;5016133;28;20036;-75
2023/04/04 04:00:25;;;;;;;1.08;0.50;;;16.10;51.20;;;;;;5015805;28;20033;-75
2023/04/04 04:02:51;;;;;;;0.40;0.40;;;16.00;51.20;;;;;;5015597;28;20535;-75
2023/04/04 04:05:17;;;;;;;1.48;0.57;;;16.00;51.20;;;;;;5016039;28;20050;-76
2023/04/04 04:07:44;;;;;;;0.90;0.50;;;16.00;51.20;;;;;;5015893;28;20505;-75
2023/04/04 04:10:12;;;;;;;1.15;0.60;;;16.00;51.20;;;;;;5016320;28;20413;-75
2023/04/04 04:12:38;;;;;;;1.20;0.60;;;16.00;51.20;;;;;;5015742;28;20057;-75
2023/04/04 04:15:05;;;;;;;0.88;0.50;;;16.00;51.20;;;;;;5015845;28;20389;-75
2023/04/04 04:17:31;;;;;;;0.50;0.50;;;16.00;51.30;;;;;;5015789;28;20087;-75
2023/04/04 04:19:57;;;;;;;1.48;0.82;;;16.00;51.20;;;;;;5015723;28;20088;-75
2023/04/04 04:22:23;;;;;;;0.60;0.50;;;16.00;51.20;;;;;;5015111;28;20427;-75
2023/04/04 04:24:49;;;;;;;0.60;0.60;;;16.00;51.30;;;;;;5015193;28;20038;-75
2023/04/04 04:27:15;;;;;;;1.05;0.70;;;16.00;51.60;;;;;;5015190;28;20109;-75
2023/04/04 04:29:41;;;;;;;0.85;0.50;;;16.00;51.30;;;;;;5015408;28;20018;-75
2023/04/04 04:32:07;;;;;;;1.27;0.68;;;16.00;51.40;;;;;;5015534;28;20065;-75
2023/04/04 04:34:33;;;;;;;1.45;0.70;;;15.90;51.40;;;;;;5014964;28;20064;-75
2023/04/04 04:36:58;;;;;;;0.90;0.63;;;15.90;51.40;;;;;;5015105;28;20515;-75
2023/04/04 04:39:24;;;;;;;1.27;0.65;;;15.90;51.50;;;;;;5015085;28;20080;-75
2023/04/04 04:41:49;;;;;;;0.90;0.73;;;15.90;51.50;;;;;;5014897;28;20032;-75
2023/04/04 04:44:15;;;;;;;1.05;1.00;;;15.90;51.60;;;;;;5015120;28;20432;-75
2023/04/04 04:46:41;;;;;;;1.23;1.00;;;15.90;51.70;;;;;;5014786;28;20044;-75
2023/04/04 04:49:06;;;;;;;1.63;1.52;;;15.90;51.80;;;;;;5014899;28;20038;-75
2023/04/04 04:51:32;;;;;;;1.80;1.70;;;15.90;51.90;;;;;;5014918;28;20480;-75
2023/04/04 04:53:57;;;;;;;2.47;2.38;;;15.90;51.80;;;;;;5014800;28;20026;-75
2023/04/04 04:56:23;;;;;;;3.15;2.95;;;15.90;52.00;;;;;;5014808;28;20109;-75
2023/04/04 04:58:49;;;;;;;4.20;4.00;;;15.80;51.90;;;;;;5014636;28;20068;-75
2023/04/04 05:01:16;;;;;;;4.93;4.63;;;15.80;51.90;;;;;;5014719;28;20473;-75
2023/04/04 05:03:42;;;;;;;6.07;5.68;;;15.90;52.20;;;;;;5014206;28;20061;-75
2023/04/04 17:09:58;;;;;;;3.38;0.73;;;20.20;82.90;;;;;;5129535;27;20385;-72
2023/04/04 17:12:25;;;;;;;2.20;1.02;;;20.10;83.10;;;;;;5130155;28;20027;-72
2023/04/04 17:14:52;;;;;;;1.58;0.60;;;;;;;;;;5130152;28;20055;-71
2023/04/04 17:17:18;;;;;;;1.83;0.50;;;20.30;83.60;;;;;;5130281;28;20019;-72
2023/04/04 17:19:45;;;;;;;3.03;0.82;;;20.10;84.00;;;;;;5130392;28;20401;-72
2023/04/04 17:22:11;;;;;;;1.30;1.00;;;20.00;84.20;;;;;;5130316;28;20358;-72
2023/04/04 17:24:37;;;;;;;2.67;0.70;;;20.10;84.50;;;;;;5129915;28;20477;-72
2023/04/04 17:27:03;;;;;;;0.52;0.43;;;20.00;84.90;;;;;;5130219;28;20015;-72
2023/04/04 17:42:16;;;;;;;4.13;1.10;;;21.20;49.90;;;;;;6273266;22;1264391;-73
2023/04/04 17:44:42;;;;;;;1.48;0.90;;;20.10;50.30;;;;;;6254105;22;20000;-72
2023/04/04 17:47:09;;;;;;;2.67;1.00;;;20.00;50.20;;;;;;6253619;23;20071;-72
2023/04/04 17:49:36;;;;;;;4.35;1.40;;;19.90;69.70;;;;;;6253153;23;20075;-73
2023/04/04 17:52:03;;;;;;;0.80;0.60;;;19.80;69.90;;;;;;6253497;23;20309;-73
2023/04/04 17:54:29;;;;;;;0.90;0.57;;;19.70;70.10;;;;;;6202421;23;20031;-73
2023/04/04 17:56:56;;;;;;;1.13;0.77;;;19.90;70.50;;;;;;6201926;23;20055;-73
2023/04/04 17:59:23;;;;;;;1.50;0.63;;;19.70;70.50;;;;;;6227037;23;20373;-73
2023/04/04 18:01:49;;;;;;;4.18;0.57;;;19.70;70.80;;;;;;6227003;23;20011;-72
2023/04/04 18:04:16;;;;;;;2.70;1.13;;;19.70;50.60;;;;;;6202187;23;20016;-72
2023/04/04 18:06:42;;;;;;;2.35;0.80;;;19.40;70.80;;;;;;6253070;23;19996;-72
2023/04/04 18:09:09;;;;;;;1.30;0.77;;;19.80;71.80;;;;;;6253332;23;20326;-72
2023/04/04 18:11:35;;;;;;;3.20;0.85;;;19.50;71.40;;;;;;6253369;23;20323;-72
2023/04/04 18:14:02;;;;;;;2.67;0.60;;;;;;;;;;6263283;22;19993;-72
2023/04/04 18:16:29;;;;;;;1.23;0.60;;;19.70;72.40;;;;;;6253496;23;20071;-72
2023/04/04 18:18:55;;;;;;;1.35;0.80;;;19.40;72.10;;;;;;6252979;23;20075;-72
2023/04/04 18:21:21;;;;;;;1.20;0.73;;;19.50;50.50;;;;;;6252972;23;19999;-72
2023/04/04 18:23:47;;;;;;;2.40;1.80;;;19.50;72.40;;;;;;6252808;23;19996;-72
2023/04/04 18:26:13;;;;;;;0.77;0.47;;;19.50;72.20;;;;;;6252810;23;20024;-72
2023/04/04 18:28:39;;;;;;;1.35;0.63;;;19.60;72.30;;;;;;6253006;23;20001;-72
2023/04/04 18:31:07;;;;;;;1.60;0.60;;;19.30;72.20;;;;;;6252971;23;20008;-72
2023/04/04 18:33:33;;;;;;;1.65;0.88;;;19.30;72.20;;;;;;6252657;23;19992;-72
2023/04/04 18:36:01;;;;;;;1.42;0.75;;;19.20;71.90;;;;;;6262825;22;20022;-72
2023/04/04 18:38:27;;;;;;;2.05;0.70;;;19.50;71.40;;;;;;6252858;23;20511;-72
2023/04/04 18:40:55;;;;;;;0.82;0.60;;;19.40;71.70;;;;;;6252973;23;20327;-72
2023/04/04 18:43:22;;;;;;;0.93;0.60;;;19.40;60.90;;;;;;6245427;23;20031;-72
2023/04/04 18:45:48;;;;;;;1.27;0.47;;;19.50;71.10;;;;;;6245858;23;19996;-72
2023/04/04 18:48:14;;;;;;;2.53;0.52;;;19.00;70.70;;;;;;6246170;23;20316;-72
2023/04/04 18:50:41;;;;;;;1.38;0.50;;;;;;;;;;6245687;23;20004;-72
2023/04/04 18:53:07;;;;;;;0.70;0.60;;;19.30;49.50;;;;;;6246276;23;20000;-72
2023/04/04 18:55:33;;;;;;;1.98;0.60;;;19.40;70.70;;;;;;6219634;23;20061;-72
2023/04/04 18:57:59;;;;;;;1.95;0.70;;;19.30;49.90;;;;;;6246217;23;19992;-72
2023/04/04 19:00:25;;;;;;;2.22;0.88;;;19.30;49.80;;;;;;6246232;23;20000;-72
2023/04/04 19:02:51;;;;;;;2.78;0.80;;;19.40;70.80;;;;;;6246303;23;20058;-71
2023/04/04 19:05:22;;;;;;;5.75;1.00;;;19.20;50.20;;;;;;6255905;23;20004;-71
2023/04/04 19:07:49;;;;;;;1.60;0.77;;;19.30;50.20;;;;;;6245935;23;20075;-72
2023/04/04 19:10:16;;;;;;;2.30;1.00;;;19.20;50.10;;;;;;6255497;23;20015;-71
2023/04/04 19:12:42;;;;;;;1.25;0.80;;;19.20;50.00;;;;;;6245914;23;19992;-71
2023/04/04 19:15:09;;;;;;;2.78;0.80;;;19.20;50.00;;;;;;6246064;23;20000;-72
2023/04/04 19:17:35;;;;;;;1.70;0.63;;;19.20;49.90;;;;;;6246082;23;20327;-72
2023/04/04 19:20:01;;;;;;;1.77;0.90;;;19.20;49.90;;;;;;6245676;23;20031;-72
2023/04/04 19:22:27;;;;;;;2.25;0.70;;;19.10;49.80;;;;;;6255744;23;20012;-72
2023/04/04 19:24:52;;;;;;;2.78;0.90;;;19.10;49.80;;;;;;6255787;23;20519;-72
2023/04/04 19:27:18;;;;;;;1.08;0.85;;;19.20;49.80;;;;;;6255663;23;20024;-72
2023/04/04 19:29:44;;;;;;;1.67;0.70;;;19.10;49.80;;;;;;6245752;23;20006;-72
2023/04/04 19:32:15;;;;;;;2.78;0.98;;;19.10;49.80;;;;;;6245900;23;20001;-72
2023/04/04 19:34:42;;;;;;;1.35;0.85;;;19.10;49.70;;;;;;6246013;23;19996;-72
2023/04/04 19:37:13;;;;;;;2.15;0.98;;;19.10;49.70;;;;;;6255804;23;19996;-72
2023/04/04 19:39:40;;;;;;;2.33;0.90;;;19.00;49.70;;;;;;6255607;23;20071;-72
2023/04/04 19:42:07;;;;;;;0.88;0.60;;;19.00;49.50;;;;;;6245515;23;20012;-71
2023/04/04 19:44:37;;;;;;;1.30;0.93;;;19.00;49.60;;;;;;6255559;23;20004;-72
2023/04/04 19:47:03;;;;;;;2.53;0.70;;;19.00;49.70;;;;;;6255681;23;20376;-72
2023/04/04 19:49:32;;;;;;;1.40;0.75;;;19.00;49.50;;;;;;6245538;23;19996;-72
2023/04/04 19:52:03;;;;;;;1.02;0.70;;;18.90;49.60;;;;;;6245373;23;20011;-72
2023/04/04 19:54:33;;;;;;;0.93;0.60;;;18.90;49.50;;;;;;6244904;23;19999;-71
2023/04/04 19:57:01;;;;;;;0.98;0.60;;;18.90;49.50;;;;;;6255780;23;20024;-72
2023/04/04 19:59:57;;;;;;;1.23;0.80;;;18.90;49.50;;;;;;6245070;23;20016;-72
2023/04/04 20:02:29;;;;;;;2.80;0.90;;;18.90;49.30;;;;;;6245142;23;20447;-72
2023/04/04 20:04:55;;;;;;;0.90;0.80;;;18.90;49.40;;;;;;6245451;23;20110;-72
2023/04/04 20:07:23;;;;;;;1.45;0.60;;;18.80;49.30;;;;;;6245105;23;19997;-72
2023/04/04 20:09:53;;;;;;;1.45;0.60;;;18.90;49.40;;;;;;6245593;23;20000;-72
2023/04/04 20:12:24;;;;;;;;;;;18.80;49.30;;;;;;6245595;23;20570;-72
2023/04/04 20:14:53;;;;;;;1.30;0.60;;;18.80;49.30;;;;;;6245478;23;19900;-72
2023/04/04 20:17:19;;;;;;;2.20;1.30;;;18.80;49.20;;;;;;6245467;23;20354;-72
2023/04/04 20:19:45;;;;;;;1.30;0.80;;;18.70;49.20;;;;;;6255272;23;20030;-72
2023/04/04 20:22:12;;;;;;;0.55;0.55;;;18.70;49.20;;;;;;6255257;23;20361;-72
2023/04/04 20:24:40;;;;;;;0.82;0.65;;;18.70;49.10;;;;;;6245146;23;20011;-72
2023/04/04 20:27:05;;;;;;;1.77;0.80;;;18.70;49.10;;;;;;6255278;23;20020;-72
2023/04/04 20:29:33;;;;;;;1.17;0.73;;;18.70;49.10;;;;;;6255056;23;19992;-72
2023/04/04 20:32:06;;;;;;;1.23;0.70;;;18.60;60.80;;;;;;6255110;23;20075;-72
2023/04/04 20:34:40;;;;;;;1.45;0.73;;;18.70;48.90;;;;;;6255080;23;20003;-72
2023/04/04 20:37:14;;;;;;;1.27;0.70;;;18.70;48.90;;;;;;6245094;23;20004;-72
2023/04/04 20:40:00;;;;;;;2.58;0.80;;;18.60;48.80;;;;;;6245133;23;20003;-72
2023/04/04 20:42:29;;;;;;;2.00;0.60;;;18.60;48.80;;;;;;6244894;23;20023;-72
2023/04/04 20:45:08;;;;;;;1.15;0.63;;;18.60;48.70;;;;;;6245041;23;20034;-73
2023/04/04 20:47:50;;;;;;;1.30;0.60;;;18.50;48.70;;;;;;6245181;23;20066;-73
2023/04/04 20:50:16;;;;;;;4.18;1.02;;;18.60;48.90;;;;;;6245124;23;20082;-73
2023/04/04 20:52:49;;;;;;;1.15;0.68;;;18.60;48.80;;;;;;6244624;23;20348;-74
2023/04/04 20:55:21;;;;;;;1.27;0.75;;;18.50;48.70;;;;;;6245068;23;19996;-72
2023/04/04 20:57:49;;;;;;;3.63;0.90;;;18.50;48.70;;;;;;6245073;23;20003;-72
2023/04/04 21:00:24;;;;;;;3.10;1.00;;;18.50;48.60;;;;;;6245169;23;20000;-72
2023/04/04 21:02:51;;;;;;;5.15;1.38;;;18.50;48.60;;;;;;6244982;23;19996;-72
2023/04/04 21:05:30;;;;;;;3.22;0.98;;;18.40;48.60;;;;;;6254900;23;20007;-72
2023/04/04 21:07:57;;;;;;;6.15;1.50;;;18.30;48.40;;;;;;6254927;23;20000;-72
2023/04/04 21:10:44;;;;;;;2.17;1.10;;;18.30;48.50;;;;;;6254791;23;20323;-73
2023/04/04 21:13:10;;;;;;;3.80;1.42;;;18.30;48.50;;;;;;6243711;23;19996;-72
2023/04/04 21:15:37;;;;;;;2.45;1.30;;;18.30;48.60;;;;;;6254773;23;19996;-72
2023/04/04 21:18:08;;;;;;;2.67;1.35;;;18.30;48.60;;;;;;6254825;23;20103;-72
2023/04/04 21:20:46;;;;;;;2.83;1.02;;;18.30;48.50;;;;;;6254799;23;20401;-72
2023/04/04 21:23:23;;;;;;;2.20;0.90;;;18.20;48.40;;;;;;6254781;23;20000;-72
2023/04/04 21:25:49;;;;;;;1.63;1.08;;;18.20;48.40;;;;;;6254644;23;20067;-72
2023/04/04 21:28:15;;;;;;;3.33;1.23;;;18.20;48.50;;;;;;6254702;23;20020;-72
2023/04/04 21:30:45;;;;;;;1.42;1.05;;;18.20;48.40;;;;;;6254485;23;20450;-72
2023/04/04 21:33:17;;;;;;;5.50;1.27;;;18.10;48.50;;;;;;6244916;23;19997;-72
2023/04/04 21:35:49;;;;;;;6.05;1.15;;;18.20;48.50;;;;;;6244408;23;20077;-72
2023/04/04 21:38:29;;;;;;;1.60;0.65;;;18.10;48.50;;;;;;6244501;23;20000;-72
2023/04/04 21:40:59;;;;;;;2.15;1.20;;;18.10;48.40;;;;;;6244820;23;20007;-72
2023/04/04 21:43:25;;;;;;;4.45;1.00;;;18.10;48.30;;;;;;6244493;23;20040;-72
2023/04/04 21:45:54;;;;;;;1.85;0.85;;;18.10;48.40;;;;;;6244857;23;20000;-72
2023/04/04 21:48:22;;;;;;;3.05;0.85;;;18.10;48.40;;;;;;6244756;23;19996;-72
2023/04/04 21:50:48;;;;;;;2.30;1.25;;;18.10;48.50;;;;;;6244797;23;20343;-72
2023/04/04 21:53:16;;;;;;;1.05;0.85;;;18.10;48.40;;;;;;6244260;23;20432;-73
2023/04/04 21:55:46;;;;;;;1.75;1.13;;;18.10;48.40;;;;;;6218488;23;20000;-72
2023/04/04 21:58:12;;;;;;;2.90;1.15;;;18.10;48.40;;;;;;6244411;23;20019;-72
2023/04/04 22:00:38;;;;;;;1.67;0.98;;;18.10;48.30;;;;;;6244823;23;19996;-72
2023/04/04 22:03:04;;;;;;;1.60;0.90;;;18.10;48.50;;;;;;6244658;23;20008;-72
2023/04/04 22:05:30;;;;;;;2.05;1.27;;;18.10;48.30;;;;;;6244290;23;20332;-72
2023/04/04 22:07:56;;;;;;;1.23;1.10;;;18.10;48.40;;;;;;6244287;23;19996;-72
2023/04/04 22:10:25;;;;;;;0.80;0.75;;;18.10;48.50;;;;;;6244502;23;20050;-72
2023/04/04 22:12:51;;;;;;;2.83;1.20;;;18.10;48.40;;;;;;6254477;23;19992;-72
2023/04/04 22:15:17;;;;;;;1.70;1.10;;;18.10;48.50;;;;;;6254643;23;20003;-72
2023/04/04 22:17:49;;;;;;;1.85;1.10;;;18.10;48.30;;;;;;6255736;23;20000;-72
2023/04/04 22:20:18;;;;;;;1.75;1.13;;;18.10;48.40;;;;;;6246755;23;20502;-72
2023/04/04 22:22:44;;;;;;;1.13;1.02;;;18.10;48.50;;;;;;6256447;23;20007;-72
2023/04/04 22:25:11;;;;;;;1.05;0.60;;;18.10;49.10;;;;;;6246144;23;19996;-72
2023/04/04 22:27:39;;;;;;;1.47;0.80;;;18.10;48.40;;;;;;6246612;23;19995;-72
2023/04/04 22:30:07;;;;;;;1.73;1.10;;;18.10;48.40;;;;;;6245978;23;20403;-72
2023/04/04 22:32:33;;;;;;;0.90;0.82;;;18.10;48.30;;;;;;6246563;23;19996;-72
2023/04/04 22:34:59;;;;;;;1.00;1.00;;;18.10;48.40;;;;;;6246354;23;20003;-72
2023/04/04 22:37:26;;;;;;;2.58;1.27;;;18.10;48.40;;;;;;6246443;23;20000;-72
2023/04/04 22:39:52;;;;;;;2.20;0.70;;;18.10;48.40;;;;;;6246095;23;20007;-72
2023/04/04 22:42:19;;;;;;;2.33;1.20;;;18.10;48.40;;;;;;6245919;23;20071;-72
2023/04/04 22:44:48;;;;;;;1.40;1.00;;;18.10;48.30;;;;;;6245932;23;20458;-72
2023/04/04 22:47:31;;;;;;;1.45;0.98;;;18.10;48.40;;;;;;6243915;23;20004;-72
2023/04/04 22:49:57;;;;;;;2.55;0.90;;;18.10;48.50;;;;;;6245848;23;20073;-72
2023/04/04 22:52:25;;;;;;;1.30;1.20;;;18.10;48.50;;;;;;6256139;23;20002;-72
2023/04/04 22:54:51;;;;;;;1.02;0.75;;;18.10;48.50;;;;;;6256135;23;20000;-72
2023/04/04 22:57:17;;;;;;;1.60;0.85;;;18.10;49.10;;;;;;6256247;23;20319;-72
2023/04/04 22:59:42;;;;;;;1.90;1.30;;;18.10;48.40;;;;;;6256201;23;20054;-72
2023/04/04 23:02:08;;;;;;;0.85;0.80;;;18.00;48.40;;;;;;6255992;23;20042;-72
2023/04/04 23:04:33;;;;;;;1.27;0.90;;;18.00;48.50;;;;;;6256011;23;20000;-72
2023/04/04 23:06:59;;;;;;;1.77;1.02;;;18.00;48.50;;;;;;6256051;23;20020;-72
2023/04/04 23:09:25;;;;;;;1.45;1.30;;;18.00;48.50;;;;;;6255947;23;20055;-72
2023/04/04 23:11:50;;;;;;;1.45;0.90;;;18.00;48.50;;;;;;6246032;23;20524;-72
2023/04/04 23:14:18;;;;;;;1.50;0.88;;;18.00;48.50;;;;;;6256003;23;19992;-73
2023/04/04 23:16:44;;;;;;;1.25;0.90;;;18.00;48.50;;;;;;6246116;23;20004;-72
2023/04/04 23:19:10;;;;;;;1.38;0.90;;;18.00;48.50;;;;;;6255868;23;19999;-72
2023/04/04 23:21:36;;;;;;;0.95;0.82;;;18.00;48.50;;;;;;6255949;23;20000;-72
2023/04/04 23:24:05;;;;;;;1.48;0.70;;;18.10;48.60;;;;;;6255820;23;20065;-72
2023/04/04 23:26:32;;;;;;;2.10;0.93;;;18.00;48.60;;;;;;6255811;23;20003;-72
2023/04/04 23:29:00;;;;;;;1.70;0.90;;;18.00;48.60;;;;;;6255802;23;20046;-72
2023/04/04 23:31:26;;;;;;;1.95;0.80;;;18.00;48.50;;;;;;6255609;23;20303;-72
2023/04/04 23:33:52;;;;;;;1.27;0.88;;;18.00;48.60;;;;;;6255855;23;19996;-72
2023/04/04 23:36:17;;;;;;;1.20;1.00;;;17.90;48.60;;;;;;6255730;23;20058;-72
2023/04/04 23:38:43;;;;;;;1.23;1.00;;;17.90;48.60;;;;;;6255716;23;20032;-72
2023/04/04 23:41:10;;;;;;;0.77;0.73;;;17.90;48.60;;;;;;6255681;23;20000;-72
2023/04/04 23:43:37;;;;;;;1.20;1.10;;;17.90;48.60;;;;;;6255440;23;20012;-72
2023/04/04 23:46:04;;;;;;;0.75;0.60;;;17.90;48.60;;;;;;6255606;23;20538;-72
2023/04/04 23:48:30;;;;;;;0.88;0.70;;;17.90;48.60;;;;;;6245719;23;20062;-72
2023/04/04 23:50:56;;;;;;;1.00;0.93;;;17.90;49.20;;;;;;6255664;23;20042;-72
2023/04/04 23:53:25;;;;;;;1.40;0.70;;;17.90;48.60;;;;;;6255605;23;19993;-72
2023/04/04 23:55:50;;;;;;;1.50;0.85;;;17.90;48.60;;;;;;6255517;23;20041;-72
2023/04/04 23:58:16;;;;;;;0.75;0.68;;;17.90;48.70;;;;;;6255467;23;20454;-72
